Latest Weather Observations for Gosford

IDN60801

Issued at 6:32 pm EST Tuesday 7 July 2015 (issued every 30 minutes, with the page automatically refreshed every 10 minutes)

About weather observations | Map of weather stations | Latest weather observations for NSW | Other Formats
Station Details ID: 061425 Name: GOSFORD AWS Lat: -33.44 Lon: 151.36 Height: 7.0 m
Data from the previous 72 hours. | See also: Recent months at Gosford
Date/Time
EST
Temp
°C
App
Temp
°C
Dew
Point
Rel
Hum
%
Delta-T
°C
Wind Press
QNH
hPa
Press
MSL
hPa
Rain
since 9 am
mm
Dir
 
Spd
km/h
Gust
km/h
Spd
kts
Gust
kts
07/06:30pm 12.2 9.3 8.3 77 1.9 SSW 13 20 7 11 - - 0.0
07/06:00pm 12.0 10.3 8.5 79 1.7 SW 7 13 4 7 - - 0.0
07/05:30pm 12.1 10.6 8.4 78 1.8 SW 6 9 3 5 - - 0.0
07/05:00pm 12.3 10.6 8.4 77 1.9 SSW 7 11 4 6 - - 0.0
07/04:30pm 12.4 10.7 8.3 76 2.0 SSW 7 15 4 8 - - 0.0
07/04:00pm 12.7 10.0 9.0 78 1.9 SSW 13 20 7 11 - - 0.0
07/03:30pm 12.5 8.7 9.0 79 1.8 S 19 30 10 16 - - 0.0
07/03:00pm 13.0 12.7 10.0 82 1.5 S 2 4 1 2 - - 0.0
07/02:30pm 12.6 11.4 9.6 82 1.5 S 6 9 3 5 - - 0.0
07/02:00pm 13.9 11.4 8.1 68 2.9 SW 11 22 6 12 - - 0.0
07/01:30pm 14.3 11.1 8.3 67 3.0 SW 15 24 8 13 - - 0.0
07/01:00pm 13.8 10.5 8.0 68 2.9 SSW 15 22 8 12 - - 0.0
07/12:30pm 14.3 11.0 6.2 58 3.9 SW 13 22 7 12 - - 0.0
07/12:00pm 14.4 10.6 6.0 57 4.0 SW 15 22 8 12 - - 0.0
07/11:30am 14.4 10.5 5.5 55 4.2 SW 15 24 8 13 - - 0.0
07/11:00am 14.5 10.9 5.0 53 4.4 WSW 13 19 7 10 - - 0.0
07/10:30am 13.9 10.3 4.8 54 4.2 WSW 13 19 7 10 - - 0.0
07/10:00am 13.4 10.1 4.8 56 4.0 WSW 11 17 6 9 - - 0.0
07/09:30am 12.6 8.9 4.3 57 3.8 WSW 13 19 7 10 - - 0.0
07/09:00am 11.7 9.0 3.7 58 3.6 WNW 7 11 4 6 - - 0.0
07/08:30am 10.8 8.3 3.6 61 3.2 NW 6 9 3 5 - - 0.0
07/08:00am 9.7 6.9 3.2 64 2.8 WNW 7 11 4 6 - - 0.0
07/07:30am 8.9 6.2 2.9 66 2.6 W 6 9 3 5 - - 0.0
07/07:00am 8.2 5.0 3.1 70 2.2 WNW 9 13 5 7 - - 0.0
07/06:30am 8.1 4.5 3.2 71 2.1 WNW 11 15 6 8 - - 0.0
07/06:00am 6.7 4.1 3.0 77 1.5 WSW 6 13 3 7 - - 0.0
07/05:30am 5.2 1.9 2.6 83 1.1 W 9 11 5 6 - - 0.0
07/05:00am 6.1 3.4 2.6 78 1.4 WSW 6 7 3 4 - - 0.0
07/04:30am 6.3 4.3 2.2 75 1.7 W 2 6 1 3 - - 0.0
07/04:00am 6.9 4.3 1.2 67 2.3 WSW 4 6 2 3 - - 0.0
07/03:30am 8.5 5.1 1.6 62 2.8 WNW 9 15 5 8 - - 0.0
07/03:00am 8.4 5.4 1.8 63 2.7 WNW 7 15 4 8 - - 0.0
07/02:30am 8.0 4.6 1.8 65 2.5 W 9 17 5 9 - - 0.0
07/02:00am 8.1 5.1 1.7 64 2.6 W 7 11 4 6 - - 0.0
07/01:30am 8.3 5.4 1.7 63 2.7 W 6 13 3 7 - - 0.0
07/01:00am 9.3 5.1 1.7 59 3.2 WSW 13 22 7 12 - - 0.0
07/12:30am 9.0 5.6 1.7 60 3.0 WSW 9 19 5 10 - - 0.0
07/12:00am 9.2 6.1 1.6 59 3.1 WSW 7 17 4 9 - - 0.0
 
Date/Time
EST
Temp
°C
App
Temp
°C
Dew
Point
Rel
Hum
%
Delta-T
°C
Wind Press
QNH
hPa
Press
MSL
hPa
Rain
since 9 am
mm
Dir
 
Spd
km/h
Gust
km/h
Spd
kts
Gust
kts
06/11:30pm 9.1 5.0 2.2 62 2.9 W 13 17 7 9 - - 0.0
06/11:00pm 7.7 6.1 2.6 70 2.1 CALM 0 6 0 3 - - 0.0
06/10:30pm 6.1 4.5 2.4 77 1.5 CALM 0 4 0 2 - - 0.0
06/10:00pm 6.5 4.9 2.4 75 1.7 CALM 0 2 0 1 - - 0.0
06/09:30pm 7.2 5.2 2.5 72 1.9 E 2 4 1 2 - - 0.0
06/09:00pm 9.3 6.9 2.2 61 3.0 NW 4 9 2 5 - - 0.0
06/08:30pm 9.3 6.6 2.4 62 2.9 NW 6 9 3 5 - - 0.0
06/08:00pm 9.9 7.6 2.5 60 3.1 NW 4 7 2 4 - - 0.0
06/07:30pm 10.7 8.0 2.5 57 3.5 WNW 6 11 3 6 - - 0.0
06/07:00pm 11.0 7.8 2.8 57 3.5 W 9 11 5 6 - - 0.0
06/06:30pm 11.6 8.4 2.9 55 3.8 WNW 9 15 5 8 - - 0.0
06/06:00pm 11.8 9.0 3.3 56 3.7 WNW 7 9 4 5 - - 0.0
06/05:30pm 11.9 9.3 4.2 59 3.5 WNW 7 9 4 5 - - 0.0
06/05:00pm 11.7 9.7 4.4 61 3.3 WNW 4 4 2 2 - - 0.0
06/04:30pm 14.9 11.7 2.8 44 5.4 WSW 9 13 5 7 - - 0.0
06/04:00pm 16.2 13.4 2.9 41 6.0 WSW 7 13 4 7 - - 0.0
06/03:30pm 16.6 12.5 2.2 38 6.5 W 13 20 7 11 - - 0.0
06/03:00pm 16.8 12.7 2.0 37 6.6 W 13 20 7 11 - - 0.0
06/02:30pm 16.8 13.1 2.4 38 6.5 W 11 15 6 8 - - 0.0
06/02:00pm 16.9 14.1 2.9 39 6.4 WNW 7 13 4 7 - - 0.0
06/01:30pm 16.3 12.5 2.0 38 6.4 NW 11 17 6 9 - - 0.0
06/01:00pm 16.0 11.9 2.1 39 6.2 WNW 13 19 7 10 - - 0.0
06/12:30pm 15.3 11.5 1.8 40 5.9 NW 11 22 6 12 - - 0.0
06/12:00pm 14.8 11.4 1.7 41 5.7 WNW 9 19 5 10 - - 0.0
06/11:30am 14.3 10.7 0.6 39 5.8 NW 9 17 5 9 - - 0.0
06/11:00am 14.0 10.0 0.3 39 5.8 WNW 11 15 6 8 - - 0.0
06/10:30am 13.3 9.5 -1.1 37 5.8 WNW 9 17 5 9 - - 0.0
06/10:00am 12.8 9.3 -1.1 38 5.6 WNW 7 15 4 8 - - 0.0
06/09:30am 12.6 9.4 -0.6 40 5.4 NW 6 11 3 6 - - 0.0
06/09:00am 11.8 7.6 -1.0 41 5.1 NW 11 19 6 10 - - 0.0
06/08:30am 11.2 7.0 -0.9 43 4.8 NW 11 20 6 11 - - 0.0
06/08:15am 10.8 6.6 -0.9 44 4.6 NW 11 20 6 11 - - 0.0
06/08:00am 5.8 4.0 1.0 71 1.9 CALM 0 2 0 1 - - 0.0
06/07:30am 5.8 2.8 0.6 69 2.0 NNW 6 7 3 4 - - 0.0
06/07:00am 5.5 3.1 -0.5 65 2.3 E 2 6 1 3 - - 0.0
06/06:30am 6.8 3.9 -1.1 57 3.0 NNE 4 7 2 4 - - 0.0
06/06:00am 8.4 4.4 -2.2 47 4.0 W 9 20 5 11 - - 0.0
06/05:30am 10.1 5.3 -2.9 40 4.9 WNW 13 19 7 10 - - 0.0
06/05:00am 7.2 4.4 -0.3 59 2.9 WNW 4 9 2 5 - - 0.0
06/04:30am 8.8 6.3 -0.8 51 3.7 NNW 2 7 1 4 - - 0.0
06/04:00am 9.1 6.2 -1.0 49 3.9 N 4 9 2 5 - - 0.0
06/03:30am 9.3 5.8 -1.1 48 4.0 WNW 7 15 4 8 - - 0.0
06/03:00am 10.0 6.6 -0.8 47 4.3 WNW 7 15 4 8 - - 0.0
06/02:30am 8.7 5.4 0.4 56 3.3 NW 7 11 4 6 - - 0.0
06/02:00am 11.7 7.0 -2.1 38 5.4 WNW 13 20 7 11 - - 0.0
06/01:30am 11.1 7.6 -1.6 41 5.0 WNW 7 15 4 8 - - 0.0
06/01:00am 10.1 7.3 -0.4 48 4.2 WNW 4 11 2 6 - - 0.0
06/12:30am 11.8 8.5 -1.3 40 5.2 WNW 6 11 3 6 - - 0.0
06/12:00am 11.9 7.0 -0.6 42 5.0 WNW 15 22 8 12 - - 0.0
 
Date/Time
EST
Temp
°C
App
Temp
°C
Dew
Point
Rel
Hum
%
Delta-T
°C
Wind Press
QNH
hPa
Press
MSL
hPa
Rain
since 9 am
mm
Dir
 
Spd
km/h
Gust
km/h
Spd
kts
Gust
kts
05/11:30pm 12.8 7.9 -0.8 39 5.5 NW 15 26 8 14 - - 0.0
05/11:10pm 13.2 8.5 0.9 43 5.2 NW 15 32 8 17 - - 0.0
05/11:00pm 8.0 5.1 2.7 69 2.2 NW 7 15 4 8 - - 0.0
05/10:49pm 10.3 7.2 3.6 63 2.9 NW 9 19 5 10 - - 0.0
05/10:30pm 4.8 3.5 4.1 95 0.3 CALM 0 7 0 4 - - 0.0
05/10:00pm 5.3 4.1 4.7 96 0.3 CALM 0 0 0 0 - - 0.0
05/09:30pm 5.6 4.5 5.0 96 0.3 CALM 0 0 0 0 - - 0.0
05/09:00pm 6.0 5.0 5.4 96 0.3 CALM 0 0 0 0 - - 0.0
05/08:30pm 6.0 4.9 5.0 93 0.4 CALM 0 0 0 0 - - 0.0
05/08:00pm 6.5 5.4 5.3 92 0.5 CALM 0 0 0 0 - - 0.0
05/07:30pm 7.1 6.1 5.6 90 0.7 CALM 0 0 0 0 - - 0.0
05/07:00pm 7.8 6.9 5.9 88 0.9 CALM 0 0 0 0 - - 0.0
05/06:30pm 8.4 7.4 5.7 83 1.2 CALM 0 0 0 0 - - 0.0
05/06:00pm 9.0 8.1 6.1 82 1.3 CALM 0 0 0 0 - - 0.0
05/05:30pm 10.1 9.2 5.9 75 1.9 CALM 0 2 0 1 - - 0.0
05/05:00pm 11.0 10.2 6.4 73 2.2 CALM 0 0 0 0 - - 0.0
05/04:30pm 12.3 11.4 6.1 66 2.9 CALM 0 0 0 0 - - 0.0
05/04:00pm 14.5 12.7 5.3 54 4.3 N 4 6 2 3 - - 0.0
05/03:30pm 16.4 14.9 5.1 47 5.4 NNW 2 6 1 3 - - 0.0
05/03:00pm 18.1 16.0 2.0 34 7.3 NNW 2 6 1 3 - - 0.0
05/02:30pm 17.3 15.5 3.6 40 6.4 SSE 2 4 1 2 - - 0.0
05/02:00pm 17.9 16.0 3.0 37 6.9 NNE 2 6 1 3 - - 0.0
05/01:30pm 16.5 14.3 3.6 42 6.0 S 4 7 2 4 - - 0.0
05/01:00pm 16.2 13.9 2.9 41 6.0 SSE 4 7 2 4 - - 0.0
05/12:30pm 15.3 13.1 3.1 44 5.5 SSW 4 6 2 3 - - 0.0
05/12:00pm 15.3 13.6 3.8 46 5.3 SSW 2 4 1 2 - - 0.0
05/11:30am 14.2 11.7 3.7 49 4.8 SSE 6 7 3 4 - - 0.0
05/11:00am 13.6 12.3 4.2 53 4.3 CALM 0 2 0 1 - - 0.0
05/10:30am 12.1 10.4 4.1 58 3.6 ESE 2 4 1 2 - - 0.0
05/10:00am 10.5 8.9 4.4 66 2.7 S 2 4 1 2 - - 0.0
05/09:30am 9.7 7.9 3.7 66 2.6 SW 2 6 1 3 - - 0.0
05/09:00am 8.1 7.1 5.4 83 1.2 CALM 0 0 0 0 - - 0.0
05/08:30am 5.2 3.9 4.0 92 0.5 CALM 0 0 0 0 - - 0.0
05/08:00am 3.6 2.1 3.0 96 0.2 CALM 0 0 0 0 - - 0.0
05/07:30am 1.7 -0.1 1.3 97 0.2 CALM 0 0 0 0 - - 0.0
05/07:00am 2.0 0.3 1.7 98 0.1 CALM 0 0 0 0 - - 0.0
05/06:30am 1.6 -0.2 1.2 97 0.2 CALM 0 0 0 0 - - 0.0
05/06:00am 2.0 0.3 1.6 97 0.2 CALM 0 0 0 0 - - 0.0
05/05:30am 2.6 1.0 2.3 98 0.1 CALM 0 0 0 0 - - 0.0
05/05:00am 2.2 0.5 1.8 97 0.2 CALM 0 0 0 0 - - 0.0
05/04:30am 2.3 0.6 1.9 97 0.2 CALM 0 0 0 0 - - 0.0
05/04:00am 2.4 0.7 2.0 97 0.2 CALM 0 0 0 0 - - 0.0
05/03:30am 2.9 1.3 2.5 97 0.2 CALM 0 0 0 0 - - 0.0
05/03:00am 2.9 1.3 2.5 97 0.2 CALM 0 0 0 0 - - 0.0
05/02:30am 2.5 0.8 1.9 96 0.2 CALM 0 2 0 1 - - 0.0
05/02:00am 3.3 1.8 3.0 98 0.1 CALM 0 0 0 0 - - 0.0
05/01:30am 2.9 1.3 2.3 96 0.2 CALM 0 0 0 0 - - 0.0
05/01:00am 3.1 1.5 2.5 96 0.2 CALM 0 0 0 0 - - 0.0
05/12:30am 3.2 1.6 2.6 96 0.2 CALM 0 0 0 0 - - 0.0
05/12:00am 3.4 1.9 2.8 96 0.2 CALM 0 0 0 0 - - 0.0
 
Date/Time
EST
Temp
°C
App
Temp
°C
Dew
Point
Rel
Hum
%
Delta-T
°C
Wind Press
QNH
hPa
Press
MSL
hPa
Rain
since 9 am
mm
Dir
 
Spd
km/h
Gust
km/h
Spd
kts
Gust
kts
04/11:30pm 4.1 2.7 3.5 96 0.2 CALM 0 0 0 0 - - 0.0
04/11:00pm 4.2 2.8 3.6 96 0.2 CALM 0 2 0 1 - - 0.0
04/10:30pm 4.7 3.4 4.1 96 0.3 CALM 0 0 0 0 - - 0.0
04/10:00pm 4.6 3.3 3.9 95 0.3 CALM 0 0 0 0 - - 0.0
04/09:30pm 4.9 3.6 4.0 94 0.4 CALM 0 0 0 0 - - 0.0
04/09:00pm 5.1 3.8 4.1 93 0.4 CALM 0 0 0 0 - - 0.0
04/08:30pm 5.3 4.0 4.3 93 0.4 CALM 0 0 0 0 - - 0.0
04/08:00pm 5.9 4.7 4.7 92 0.5 CALM 0 0 0 0 - - 0.0
04/07:30pm 6.2 5.0 4.5 89 0.7 CALM 0 0 0 0 - - 0.0
04/07:00pm 6.6 5.4 4.8 88 0.8 CALM 0 0 0 0 - - 0.0

Other Formats:

Comma delimited format used in spreadsheet applications
http://www.bom.gov.au/fwo/IDN60801/IDN60801.94782.axf

JavaScript Object Notation format (JSON) in row-major order
http://www.bom.gov.au/fwo/IDN60801/IDN60801.94782.json